Strona główna
METAR-TAF:

METAR-TAF

Lotnisko :

Schenectady County Airport

Schenectady, Nowy Jork, Stany Zjednoczone

Szerokość geograficzna: 42-51N, Długość geograficzna: 073-56W, wysokość: 115 m

Aktualna obserwacja pogody

Raport powstał 9 godziny i 42 minut temu, godzina 01:59 UTC
Cisza
Temperatura 23°C
Wilgotność 57%
Ciśnienie 1010 hPa
Widzialność: 16.1 km
bezchmurnie

METAR: KSCH 250159Z 00000KT 10SM CLR 23/14 A2983 RMK LAST

czas: 07:41 (11:41 UTC)


TAF: brakujący

Obserwacja i prognoza pogody dla ponad 4000 lotnisk (raport METAR i TAF).

Dostępne stacje oznaczono żółtymi i czerwonymi punktami na mapie.

Najedź kursorem aby zobaczyć nazwę stacji.

Kliknij aby zobaczyć obserwacje i prognozy pogody.

Aby zmienić mapę: kliknij na zielony przycisk z czarnym krzyżykiem, aby powiększyć; na zielony przycisk z myślnikiem, aby pomniejszyć; na zielone strzałki, aby przejść do map sąsiednich.


METAR-TAF: